createdAt,value
2018-03-18T00:02:15.186Z,32.97
2018-03-18T00:04:41.848Z,32.17
2018-03-18T00:07:08.569Z,35.05
2018-03-18T00:09:35.350Z,34.22
2018-03-18T00:12:02.084Z,29.98
2018-03-18T00:14:28.852Z,36.45
2018-03-18T00:16:55.659Z,33.00
2018-03-18T00:19:22.537Z,34.15
2018-03-18T00:21:50.024Z,33.45
2018-03-18T00:24:16.762Z,32.75
2018-03-18T00:26:43.678Z,31.92
2018-03-18T00:29:10.336Z,33.72
2018-03-18T00:31:37.272Z,30.15
2018-03-18T00:34:03.948Z,32.88
2018-03-18T00:36:31.553Z,31.27
2018-03-18T00:38:58.294Z,34.63
2018-03-18T00:41:24.978Z,35.28
2018-03-18T00:43:51.680Z,32.53
2018-03-18T00:46:18.352Z,32.90
2018-03-18T00:48:44.987Z,30.25
2018-03-18T00:51:11.672Z,32.33
2018-03-18T00:53:38.417Z,36.88
2018-03-18T00:56:05.082Z,30.67
2018-03-18T00:58:31.741Z,32.20
2018-03-18T01:00:58.419Z,29.10
2018-03-18T01:03:25.056Z,32.45
2018-03-18T01:05:51.737Z,34.20
2018-03-18T01:08:18.372Z,29.70
2018-03-18T01:10:45.035Z,30.83
2018-03-18T01:13:11.750Z,28.42
2018-03-18T01:15:38.410Z,34.28
2018-03-18T01:18:05.074Z,33.70
2018-03-18T01:20:31.732Z,35.47
2018-03-18T01:22:58.489Z,28.50
2018-03-18T01:25:25.626Z,31.33
2018-03-18T01:27:52.266Z,32.08
2018-03-18T01:30:19.465Z,31.48
2018-03-18T01:32:46.072Z,31.98
2018-03-18T01:35:12.800Z,31.17
2018-03-18T01:37:39.994Z,31.05
2018-03-18T01:40:07.179Z,32.05
2018-03-18T01:42:33.832Z,35.22
2018-03-18T01:45:00.666Z,30.73
2018-03-18T01:47:27.315Z,31.48
2018-03-18T01:49:53.958Z,34.33
2018-03-18T01:52:20.615Z,34.08
2018-03-18T01:54:47.312Z,32.55
2018-03-18T01:57:14.079Z,31.98
2018-03-18T01:59:40.689Z,32.10
2018-03-18T02:02:07.343Z,30.73
2018-03-18T02:04:34.014Z,31.52
2018-03-18T02:07:00.708Z,33.97
2018-03-18T02:09:27.382Z,33.35
2018-03-18T02:11:54.022Z,36.10
2018-03-18T02:14:20.670Z,34.60
2018-03-18T02:16:47.406Z,37.75
2018-03-18T02:19:14.028Z,35.97
2018-03-18T02:21:40.668Z,31.25
2018-03-18T02:24:07.305Z,32.60
2018-03-18T02:26:33.951Z,31.80
2018-03-18T02:29:00.690Z,29.80
2018-03-18T02:31:27.341Z,31.70
2018-03-18T02:33:54.012Z,31.92
2018-03-18T02:36:20.731Z,33.47
2018-03-18T02:38:47.423Z,34.63
2018-03-18T02:41:14.099Z,31.62
2018-03-18T02:43:40.757Z,31.15
2018-03-18T02:46:07.529Z,33.80
2018-03-18T02:48:34.977Z,33.80
2018-03-18T02:51:01.741Z,35.60
2018-03-18T02:53:28.464Z,35.40
2018-03-18T02:55:55.141Z,30.33
2018-03-18T02:58:21.861Z,30.60
2018-03-18T03:00:48.548Z,29.95
2018-03-18T03:03:15.221Z,30.23
2018-03-18T03:05:41.956Z,27.92
2018-03-18T03:08:08.600Z,29.90
2018-03-18T03:10:35.266Z,38.45
2018-03-18T03:13:01.946Z,34.33
2018-03-18T03:15:28.609Z,28.98
2018-03-18T03:17:55.985Z,32.70
2018-03-18T03:20:22.968Z,30.65
2018-03-18T03:22:49.621Z,27.05
2018-03-18T03:25:16.520Z,28.42
2018-03-18T03:27:43.168Z,31.17
2018-03-18T03:30:09.828Z,26.77
2018-03-18T03:32:36.565Z,28.65
2018-03-18T03:35:03.229Z,34.10
2018-03-18T03:37:30.665Z,28.60
2018-03-18T03:39:57.351Z,31.30
2018-03-18T03:42:24.031Z,29.58
2018-03-18T03:44:50.694Z,29.25
2018-03-18T03:47:17.380Z,27.83
2018-03-18T03:49:44.096Z,28.33
2018-03-18T03:52:11.609Z,29.48
2018-03-18T03:54:38.260Z,30.37
2018-03-18T03:57:04.913Z,27.13
2018-03-18T03:59:31.539Z,31.30
2018-03-18T04:01:58.175Z,26.15
2018-03-18T04:04:24.827Z,27.48
2018-03-18T04:06:51.613Z,31.02
2018-03-18T04:09:18.245Z,28.48
2018-03-18T04:11:44.892Z,32.40
2018-03-18T04:14:11.536Z,30.62
2018-03-18T04:16:38.196Z,28.90
2018-03-18T04:19:04.856Z,29.30
2018-03-18T04:21:31.490Z,29.75
2018-03-18T04:23:58.159Z,30.70
2018-03-18T04:26:24.847Z,28.80
2018-03-18T04:28:51.485Z,29.73
2018-03-18T04:31:18.265Z,28.08
2018-03-18T04:33:45.066Z,28.48
2018-03-18T04:36:11.723Z,29.40
2018-03-18T04:38:38.371Z,23.42
2018-03-18T04:41:05.029Z,30.20
2018-03-18T04:43:31.703Z,27.00
2018-03-18T04:45:58.359Z,25.50
2018-03-18T04:48:25.006Z,26.92
2018-03-18T04:50:51.720Z,32.45
2018-03-18T04:53:18.450Z,23.77
2018-03-18T04:55:45.422Z,30.30
2018-03-18T04:58:12.070Z,27.73
2018-03-18T05:00:38.713Z,28.33
2018-03-18T05:03:05.515Z,28.38
2018-03-18T05:05:32.270Z,29.15
2018-03-18T05:07:58.896Z,29.60
2018-03-18T05:10:25.610Z,29.55
2018-03-18T05:12:52.349Z,28.75
2018-03-18T05:15:19.107Z,33.72
2018-03-18T05:17:45.863Z,24.50
2018-03-18T05:20:12.494Z,26.67
2018-03-18T05:22:39.134Z,30.20
2018-03-18T05:25:05.769Z,26.37
2018-03-18T05:27:32.522Z,26.40
2018-03-18T05:29:59.158Z,27.33
2018-03-18T05:32:25.842Z,28.00
2018-03-18T05:34:52.474Z,26.60
2018-03-18T05:37:19.129Z,29.27
2018-03-18T05:39:45.790Z,26.27
2018-03-18T05:42:12.520Z,21.60
2018-03-18T05:44:39.176Z,29.42
2018-03-18T05:47:05.845Z,28.58
2018-03-18T05:49:33.358Z,28.05
2018-03-18T05:52:00.020Z,24.73
2018-03-18T05:54:26.679Z,27.05
2018-03-18T05:56:53.353Z,24.45
2018-03-18T05:59:20.142Z,23.70
2018-03-18T06:01:46.804Z,25.85
2018-03-18T06:04:13.669Z,26.20
2018-03-18T06:06:40.414Z,28.48
2018-03-18T06:09:07.064Z,25.70
2018-03-18T06:11:33.713Z,31.45
2018-03-18T06:14:00.394Z,25.20
2018-03-18T06:16:27.030Z,29.85
2018-03-18T06:18:53.681Z,24.27
2018-03-18T06:21:20.537Z,24.50
2018-03-18T06:23:47.254Z,26.40
2018-03-18T06:26:13.927Z,24.92
2018-03-18T06:28:40.567Z,25.00
2018-03-18T06:31:07.219Z,27.17
2018-03-18T06:33:33.911Z,26.00
2018-03-18T06:36:00.590Z,26.60
2018-03-18T06:38:27.240Z,24.50
2018-03-18T06:40:53.947Z,30.88
2018-03-18T06:43:20.610Z,26.05
2018-03-18T06:45:47.677Z,28.33
2018-03-18T06:48:14.355Z,20.27
2018-03-18T06:50:41.016Z,22.05
2018-03-18T06:53:07.791Z,25.88
2018-03-18T06:55:34.494Z,26.80
2018-03-18T06:58:01.172Z,24.50
2018-03-18T07:00:27.917Z,24.48
2018-03-18T07:02:54.546Z,24.40
2018-03-18T07:05:21.242Z,25.35
2018-03-18T07:07:49.248Z,25.60
2018-03-18T07:10:15.948Z,25.70
2018-03-18T07:12:42.618Z,21.62
2018-03-18T07:15:09.268Z,22.48
2018-03-18T07:17:35.930Z,24.05
2018-03-18T07:20:02.658Z,21.58
2018-03-18T07:22:29.797Z,24.58
2018-03-18T07:24:56.472Z,25.67
2018-03-18T07:27:23.142Z,21.30
2018-03-18T07:29:49.785Z,22.65
2018-03-18T07:32:16.458Z,22.75
2018-03-18T07:34:43.177Z,24.33
2018-03-18T07:37:09.819Z,25.37
2018-03-18T07:39:36.566Z,22.08
2018-03-18T07:42:03.204Z,23.50
2018-03-18T07:44:29.880Z,26.47
2018-03-18T07:46:56.521Z,24.15
2018-03-18T07:49:23.225Z,20.75
2018-03-18T07:51:49.872Z,24.37
2018-03-18T07:54:16.517Z,22.27
2018-03-18T07:56:43.225Z,23.77
2018-03-18T07:59:09.842Z,23.27
2018-03-18T08:01:37.217Z,23.08
2018-03-18T08:04:03.936Z,23.33
2018-03-18T08:06:30.563Z,24.02
2018-03-18T08:08:57.359Z,21.62
2018-03-18T08:11:24.044Z,23.45
2018-03-18T08:13:50.726Z,19.25
2018-03-18T08:16:17.435Z,23.00
2018-03-18T08:18:44.074Z,22.87
2018-03-18T08:21:10.731Z,23.87
2018-03-18T08:23:37.363Z,26.90
2018-03-18T08:26:04.082Z,23.40
2018-03-18T08:28:30.878Z,20.77
2018-03-18T08:30:57.581Z,23.90
2018-03-18T08:33:24.527Z,23.33
2018-03-18T08:35:51.483Z,21.58
2018-03-18T08:38:18.177Z,22.20
2018-03-18T08:40:44.847Z,24.60
2018-03-18T08:43:11.554Z,24.17
2018-03-18T08:45:38.236Z,21.73
2018-03-18T08:48:04.900Z,24.67
2018-03-18T08:50:31.556Z,22.95
2018-03-18T08:52:58.210Z,20.43
2018-03-18T08:55:24.924Z,21.63
2018-03-18T08:57:51.814Z,20.73
2018-03-18T09:00:18.499Z,21.40
2018-03-18T09:02:45.345Z,24.90
2018-03-18T09:05:12.017Z,22.00
2018-03-18T09:07:39.113Z,21.53
2018-03-18T09:10:05.902Z,22.60
2018-03-18T09:12:32.540Z,23.13
2018-03-18T09:14:59.277Z,24.07
2018-03-18T09:17:25.909Z,20.50
2018-03-18T09:19:52.626Z,20.77
2018-03-18T09:22:19.314Z,21.97
2018-03-18T09:24:46.014Z,19.20
2018-03-18T09:27:12.703Z,20.60
2018-03-18T09:29:40.093Z,19.57
2018-03-18T09:32:06.715Z,21.67
2018-03-18T09:34:33.369Z,22.57
2018-03-18T09:37:00.020Z,19.67
2018-03-18T09:39:26.731Z,18.93
2018-03-18T09:41:54.076Z,18.77
2018-03-18T09:44:20.721Z,20.80
2018-03-18T09:46:47.352Z,21.47
2018-03-18T09:49:14.031Z,19.00
2018-03-18T09:51:40.753Z,20.40
2018-03-18T09:54:07.388Z,20.93
2018-03-18T09:56:34.087Z,19.27
2018-03-18T09:59:00.736Z,19.70
2018-03-18T10:01:27.376Z,21.00
2018-03-18T10:03:54.028Z,17.70
2018-03-18T10:06:20.696Z,17.70
2018-03-18T10:08:47.381Z,22.73
2018-03-18T10:11:14.699Z,19.50
2018-03-18T10:13:41.338Z,21.03
2018-03-18T10:16:08.032Z,20.30
2018-03-18T10:18:34.668Z,17.60
2018-03-18T10:21:01.310Z,19.63
2018-03-18T10:23:27.997Z,17.80
2018-03-18T10:25:54.680Z,21.60
2018-03-18T10:28:21.430Z,19.00
2018-03-18T10:30:48.082Z,17.20
2018-03-18T10:33:14.780Z,20.73
2018-03-18T10:35:41.457Z,18.70
2018-03-18T10:38:08.103Z,20.90
2018-03-18T10:40:34.739Z,16.97
2018-03-18T10:43:01.432Z,20.10
2018-03-18T10:45:28.094Z,18.60
2018-03-18T10:47:54.850Z,19.37
2018-03-18T10:50:21.493Z,21.00
2018-03-18T10:52:48.125Z,19.53
2018-03-18T10:55:14.770Z,19.50
2018-03-18T10:57:41.427Z,19.13
2018-03-18T11:00:08.077Z,21.93
2018-03-18T11:02:34.809Z,17.33
2018-03-18T11:05:01.591Z,20.07
2018-03-18T11:07:28.323Z,19.17
2018-03-18T11:09:55.365Z,19.50
2018-03-18T11:12:22.034Z,17.87
2018-03-18T11:14:48.743Z,19.83
2018-03-18T11:17:15.395Z,19.70
2018-03-18T11:19:42.032Z,17.77
2018-03-18T11:22:08.821Z,20.53
2018-03-18T11:24:35.608Z,18.37
2018-03-18T11:27:02.279Z,21.63
2018-03-18T11:29:29.043Z,19.13
2018-03-18T11:31:56.324Z,20.00
2018-03-18T11:34:23.017Z,18.60
2018-03-18T11:36:49.723Z,20.07
2018-03-18T11:39:17.068Z,22.20
2018-03-18T11:41:43.745Z,19.90
2018-03-18T11:44:10.429Z,19.70
2018-03-18T11:46:37.138Z,17.23
2018-03-18T11:49:03.822Z,16.77
2018-03-18T11:51:30.498Z,20.77
2018-03-18T11:53:57.141Z,20.10
2018-03-18T11:56:23.792Z,20.27
2018-03-18T11:58:50.503Z,18.07
2018-03-18T12:01:17.127Z,18.50
2018-03-18T12:03:43.793Z,18.67
2018-03-18T12:06:10.436Z,16.30
2018-03-18T12:08:42.969Z,16.83
2018-03-18T12:11:09.637Z,17.07
2018-03-18T12:13:36.608Z,15.53
2018-03-18T12:16:03.306Z,17.20
2018-03-18T12:18:29.969Z,19.40
2018-03-18T12:20:56.750Z,23.43
2018-03-18T12:23:23.398Z,18.53
2018-03-18T12:25:50.038Z,19.60
2018-03-18T12:28:16.741Z,22.63
2018-03-18T12:30:43.382Z,21.53
2018-03-18T12:33:10.031Z,17.37
2018-03-18T12:35:36.663Z,21.60
2018-03-18T12:38:03.312Z,20.30
2018-03-18T12:40:32.924Z,18.50
2018-03-18T12:43:05.429Z,16.40
2018-03-18T12:45:32.087Z,20.70
2018-03-18T12:47:58.863Z,20.60
2018-03-18T12:50:25.577Z,19.17
2018-03-18T12:52:52.223Z,18.37
2018-03-18T12:55:18.996Z,21.53
2018-03-18T12:57:45.687Z,23.03
2018-03-18T13:00:12.584Z,18.40
2018-03-18T13:02:39.313Z,16.90
2018-03-18T13:05:05.956Z,18.70
2018-03-18T13:07:32.655Z,18.40
2018-03-18T13:09:59.508Z,20.37
2018-03-18T13:12:26.145Z,19.00
2018-03-18T13:14:53.616Z,15.83
2018-03-18T13:17:20.426Z,19.67
2018-03-18T13:19:47.151Z,18.87
2018-03-18T13:22:13.794Z,18.70
2018-03-18T13:24:40.509Z,20.50
2018-03-18T13:27:07.122Z,16.57
2018-03-18T13:29:33.842Z,21.10
2018-03-18T13:32:00.619Z,17.33
2018-03-18T13:34:27.333Z,22.33
2018-03-18T13:36:54.055Z,20.70
2018-03-18T13:39:20.700Z,18.27
2018-03-18T13:41:47.362Z,22.87
2018-03-18T13:44:14.051Z,19.33
2018-03-18T13:46:40.707Z,19.60
2018-03-18T13:49:07.341Z,21.90
2018-03-18T13:51:34.100Z,18.00
2018-03-18T13:54:01.012Z,20.17
2018-03-18T13:56:27.671Z,19.87
2018-03-18T13:58:54.559Z,19.47
2018-03-18T14:01:21.216Z,21.37
2018-03-18T14:03:47.890Z,22.20
2018-03-18T14:06:14.583Z,18.87
2018-03-18T14:08:41.888Z,20.23
2018-03-18T14:11:08.514Z,20.33
2018-03-18T14:13:35.176Z,23.67
2018-03-18T14:16:02.573Z,21.00
2018-03-18T14:18:29.347Z,20.00
2018-03-18T14:20:56.049Z,19.93
2018-03-18T14:23:22.749Z,21.10
2018-03-18T14:25:49.461Z,20.90
2018-03-18T14:28:16.120Z,23.97
2018-03-18T14:30:43.565Z,21.47
2018-03-18T14:33:10.334Z,22.43
2018-03-18T14:35:37.038Z,20.53
2018-03-18T14:38:03.714Z,22.73
2018-03-18T14:40:30.427Z,21.37
2018-03-18T14:42:57.107Z,19.63
2018-03-18T14:45:23.764Z,21.97
2018-03-18T14:47:50.403Z,18.10
2018-03-18T14:50:17.101Z,23.20
2018-03-18T14:52:43.765Z,22.17
2018-03-18T14:55:12.891Z,17.80
2018-03-18T14:57:39.578Z,20.40
2018-03-18T15:00:06.315Z,18.00
2018-03-18T15:02:32.905Z,20.53
2018-03-18T15:04:59.549Z,18.23
2018-03-18T15:07:26.350Z,17.60
2018-03-18T15:09:53.382Z,18.67
2018-03-18T15:12:19.992Z,20.93
2018-03-18T15:14:46.634Z,22.80
2018-03-18T15:17:13.331Z,18.03
2018-03-18T15:19:40.032Z,21.13
2018-03-18T15:22:06.695Z,20.80
2018-03-18T15:24:33.358Z,17.47
2018-03-18T15:27:00.123Z,20.73
2018-03-18T15:29:26.813Z,18.63
2018-03-18T15:31:53.643Z,18.17
2018-03-18T15:34:20.321Z,22.03
2018-03-18T15:36:46.991Z,18.90
2018-03-18T15:39:14.673Z,17.40
2018-03-18T15:41:41.340Z,17.70
2018-03-18T15:44:08.015Z,19.57
2018-03-18T15:46:34.838Z,20.90
2018-03-18T15:49:01.481Z,16.40
2018-03-18T15:51:28.154Z,18.53
2018-03-18T15:53:54.797Z,18.27
2018-03-18T15:56:22.281Z,17.90
2018-03-18T15:58:48.940Z,19.63
2018-03-18T16:01:15.614Z,19.20
2018-03-18T16:03:42.271Z,20.07
2018-03-18T16:06:08.943Z,20.50
2018-03-18T16:08:35.601Z,20.60
2018-03-18T16:11:02.229Z,21.13
2018-03-18T16:13:28.877Z,21.37
2018-03-18T16:15:55.722Z,18.60
2018-03-18T16:18:22.393Z,18.47
2018-03-18T16:20:49.039Z,15.70
2018-03-18T16:23:15.675Z,16.60
2018-03-18T16:25:42.991Z,18.27
2018-03-18T16:28:09.752Z,17.53
2018-03-18T16:30:42.340Z,19.63
2018-03-18T16:33:08.948Z,23.97
2018-03-18T16:35:35.620Z,15.40
2018-03-18T16:38:02.375Z,17.90
2018-03-18T16:40:29.026Z,18.30
2018-03-18T16:42:55.714Z,18.20
2018-03-18T16:45:22.374Z,16.33
2018-03-18T16:47:49.134Z,18.00
2018-03-18T16:50:16.023Z,17.27
2018-03-18T16:52:42.630Z,16.67
2018-03-18T16:55:09.265Z,16.50
2018-03-18T16:57:36.055Z,15.90
2018-03-18T17:00:02.692Z,19.60
2018-03-18T17:02:29.445Z,17.43
2018-03-18T17:04:56.247Z,18.73
2018-03-18T17:07:22.878Z,19.80
2018-03-18T17:09:49.523Z,17.00
2018-03-18T17:12:16.173Z,18.43
2018-03-18T17:14:42.947Z,16.57
2018-03-18T17:17:09.610Z,18.50
2018-03-18T17:19:36.506Z,19.43
2018-03-18T17:22:03.148Z,17.17
2018-03-18T17:24:29.903Z,19.63
2018-03-18T17:26:56.598Z,17.27
2018-03-18T17:29:23.277Z,17.70
2018-03-18T17:31:49.946Z,17.87
2018-03-18T17:34:16.653Z,19.03
2018-03-18T17:36:43.291Z,20.00
2018-03-18T17:39:09.966Z,19.20
2018-03-18T17:41:36.703Z,22.07
2018-03-18T17:44:06.413Z,20.60
2018-03-18T17:46:39.055Z,20.30
2018-03-18T17:49:11.940Z,18.70
2018-03-18T17:51:44.390Z,19.10
2018-03-18T17:54:16.735Z,19.00
2018-03-18T17:56:54.183Z,19.90
2018-03-18T17:59:20.957Z,19.77
2018-03-18T18:01:47.717Z,17.83
2018-03-18T18:04:15.305Z,20.40
2018-03-18T18:06:41.982Z,20.10
2018-03-18T18:09:08.765Z,23.00
2018-03-18T18:11:35.437Z,22.50
2018-03-18T18:14:02.242Z,17.47
2018-03-18T18:16:28.946Z,22.03
2018-03-18T18:18:55.615Z,20.43
2018-03-18T18:21:22.357Z,18.97
2018-03-18T18:23:49.016Z,20.20
2018-03-18T18:26:15.770Z,17.90
2018-03-18T18:28:44.159Z,19.97
2018-03-18T18:31:10.815Z,17.73
2018-03-18T18:33:37.876Z,17.40
2018-03-18T18:36:04.760Z,20.90
2018-03-18T18:38:31.698Z,17.00
2018-03-18T18:40:58.547Z,18.33
2018-03-18T18:43:25.247Z,17.73
2018-03-18T18:45:52.045Z,18.40
2018-03-18T18:48:18.824Z,20.63
2018-03-18T18:50:45.508Z,17.27
2018-03-18T18:53:12.242Z,21.60
2018-03-18T18:55:39.004Z,15.70
2018-03-18T18:58:05.670Z,20.20
2018-03-18T19:00:32.476Z,15.93
2018-03-18T19:02:59.210Z,20.23
2018-03-18T19:05:25.851Z,19.90
2018-03-18T19:07:52.482Z,19.13
2018-03-18T19:10:19.207Z,19.10
2018-03-18T19:12:46.015Z,17.20
2018-03-18T19:15:12.905Z,20.60
2018-03-18T19:17:39.721Z,18.63
2018-03-18T19:20:06.391Z,19.93
2018-03-18T19:22:33.073Z,19.73
2018-03-18T19:24:59.750Z,18.60
2018-03-18T19:27:26.408Z,17.27
2018-03-18T19:29:53.173Z,18.97
2018-03-18T19:32:20.019Z,18.73
2018-03-18T19:34:47.059Z,18.40
2018-03-18T19:37:14.059Z,19.27
2018-03-18T19:39:40.804Z,17.70
2018-03-18T19:42:07.458Z,21.47
2018-03-18T19:44:34.684Z,17.53
2018-03-18T19:47:01.327Z,22.70
2018-03-18T19:49:28.139Z,18.50
2018-03-18T19:51:54.842Z,18.50
2018-03-18T19:54:21.524Z,17.30
2018-03-18T19:56:52.122Z,18.40
2018-03-18T19:59:18.824Z,20.80
2018-03-18T20:01:45.537Z,21.60
2018-03-18T20:04:12.179Z,19.67
2018-03-18T20:06:39.411Z,17.30
2018-03-18T20:09:06.182Z,17.20
2018-03-18T20:11:33.083Z,20.00
2018-03-18T20:13:59.875Z,16.60
2018-03-18T20:16:26.562Z,19.30
2018-03-18T20:18:53.220Z,16.80
2018-03-18T20:21:19.865Z,17.90
2018-03-18T20:23:46.662Z,19.23
2018-03-18T20:26:13.441Z,18.07
2018-03-18T20:28:40.191Z,19.40
2018-03-18T20:31:06.953Z,16.90
2018-03-18T20:33:33.738Z,16.50
2018-03-18T20:36:00.672Z,23.37
2018-03-18T20:38:27.300Z,18.50
2018-03-18T20:40:54.180Z,16.80
2018-03-18T20:43:20.900Z,17.10
2018-03-18T20:45:47.653Z,18.17
2018-03-18T20:48:14.347Z,17.23
2018-03-18T20:50:41.128Z,19.67
2018-03-18T20:53:08.218Z,18.77
2018-03-18T20:55:35.049Z,19.63
2018-03-18T20:58:01.707Z,18.93
2018-03-18T21:00:28.528Z,17.93
2018-03-18T21:02:55.201Z,15.80
2018-03-18T21:05:21.840Z,18.83
2018-03-18T21:07:48.490Z,17.67
2018-03-18T21:10:15.156Z,18.77
2018-03-18T21:12:41.811Z,17.10
2018-03-18T21:15:08.968Z,16.10
2018-03-18T21:17:35.606Z,17.80
2018-03-18T21:20:02.284Z,19.83
2018-03-18T21:22:28.969Z,18.83
2018-03-18T21:24:55.647Z,18.30
2018-03-18T21:27:22.279Z,17.33
2018-03-18T21:29:48.932Z,17.20
2018-03-18T21:32:15.593Z,20.70
2018-03-18T21:34:42.235Z,19.23
2018-03-18T21:37:08.901Z,18.73
2018-03-18T21:39:35.538Z,18.50
2018-03-18T21:42:02.188Z,16.23
2018-03-18T21:44:28.837Z,20.43
2018-03-18T21:46:55.487Z,17.70
2018-03-18T21:49:22.259Z,16.30
2018-03-18T21:51:49.708Z,20.30
2018-03-18T21:54:16.348Z,20.50
2018-03-18T21:56:43.005Z,17.10
2018-03-18T21:59:09.670Z,15.97
2018-03-18T22:01:40.098Z,17.00
2018-03-18T22:04:06.880Z,17.40
2018-03-18T22:06:33.843Z,17.07
2018-03-18T22:09:00.660Z,21.17
2018-03-18T22:11:27.357Z,17.50
2018-03-18T22:13:54.035Z,19.33
2018-03-18T22:16:20.808Z,17.83
2018-03-18T22:18:47.667Z,17.20
2018-03-18T22:21:14.493Z,17.33
2018-03-18T22:23:41.145Z,18.70
2018-03-18T22:26:08.250Z,17.60
2018-03-18T22:28:35.507Z,19.03
2018-03-18T22:31:02.148Z,17.17
2018-03-18T22:33:28.831Z,17.27
2018-03-18T22:35:55.516Z,18.17
2018-03-18T22:38:22.183Z,18.50
2018-03-18T22:40:48.839Z,19.47
2018-03-18T22:43:15.472Z,20.10
2018-03-18T22:45:42.146Z,19.47
2018-03-18T22:48:08.811Z,17.90
2018-03-18T22:50:35.473Z,18.60
2018-03-18T22:53:02.173Z,19.27
2018-03-18T22:55:28.841Z,18.70
2018-03-18T22:57:55.555Z,18.60
2018-03-18T23:00:22.529Z,19.07
2018-03-18T23:02:49.409Z,18.23
2018-03-18T23:05:16.063Z,22.10
2018-03-18T23:07:42.873Z,18.37
2018-03-18T23:10:09.690Z,20.57
2018-03-18T23:12:36.324Z,18.70
2018-03-18T23:15:02.982Z,18.13
2018-03-18T23:17:29.617Z,20.83
2018-03-18T23:19:56.291Z,20.37
2018-03-18T23:22:22.927Z,17.30
2018-03-18T23:24:49.586Z,19.93
2018-03-18T23:27:16.239Z,17.87
2018-03-18T23:29:42.906Z,23.80
2018-03-18T23:32:09.609Z,19.13
2018-03-18T23:34:36.253Z,20.90
2018-03-18T23:37:02.968Z,19.93
2018-03-18T23:39:29.604Z,17.20
2018-03-18T23:41:56.393Z,20.50
2018-03-18T23:44:23.051Z,19.10
2018-03-18T23:46:49.715Z,19.50
2018-03-18T23:49:16.352Z,22.83
2018-03-18T23:51:42.983Z,20.40
2018-03-18T23:54:09.891Z,21.37
2018-03-18T23:56:36.773Z,16.10
2018-03-18T23:59:03.451Z,20.33
